Time;durP1;ratioP1;P1;durP2;ratioP2;P2;SDS_P1;SDS_P2;PMS_P1;PMS_P2;Temp;Humidity;BMP_temperature;BMP_pressure;BME280_temperature;BME280_humidity;BME280_pressure;Samples;Min_cycle;Max_cycle;Signal;HPM_P1;HPM_P2
2021/06/17 00:01:29;;;;;;;11.30;10.13;;;;;;;;;;5136139;27;20446;-65
2021/06/17 00:03:56;;;;;;;12.20;11.00;;;;;;;;;;5136780;27;20802;-68
2021/06/17 00:06:23;;;;;;;11.33;10.23;;;;;;;;;;5136803;27;20473;-69
2021/06/17 00:08:51;;;;;;;11.40;10.30;;;;;;;;;;5136326;27;20446;-68
2021/06/17 00:11:19;;;;;;;11.87;10.93;;;;;;;;;;5136743;27;20438;-69
2021/06/17 00:13:46;;;;;;;12.83;11.73;;;;;;;;;;5136225;27;20431;-69
2021/06/17 00:16:14;;;;;;;11.67;10.50;;;;;;;;;;5136077;27;20966;-68
2021/06/17 00:18:41;;;;;;;12.27;11.00;;;;;;;;;;5135798;27;20962;-69
2021/06/17 00:21:08;;;;;;;11.27;10.20;;;;;;;;;;5136226;27;20438;-69
2021/06/17 00:23:36;;;;;;;14.93;11.07;;;;;;;;;;5135857;27;20453;-69
2021/06/17 00:26:03;;;;;;;12.03;10.93;;;;;;;;;;5136231;27;20549;-69
2021/06/17 00:28:32;;;;;;;12.63;10.07;;;;;;;;;;5136082;27;20827;-70
2021/06/17 00:31:00;;;;;;;11.20;10.20;;;;;;;;;;5135959;27;20448;-68
2021/06/17 00:33:28;;;;;;;11.53;10.10;;;;;;;;;;5136316;27;20465;-68
2021/06/17 00:35:55;;;;;;;12.27;11.00;;;;;;;;;;5135730;27;20459;-69
2021/06/17 00:38:22;;;;;;;11.87;10.50;;;;;;;;;;5135719;27;20464;-68
2021/06/17 00:40:51;;;;;;;11.17;10.20;;;;;;;;;;5135414;27;20533;-68
2021/06/17 00:43:18;;;;;;;13.63;9.93;;;;;;;;;;5127623;27;20450;-67
2021/06/17 00:45:47;;;;;;;10.83;9.90;;;;;;;;;;5119373;27;20430;-68
2021/06/17 00:48:15;;;;;;;10.17;9.37;;;;;;;;;;5119304;27;20475;-68
2021/06/17 00:50:44;;;;;;;12.60;10.40;;;;;;;;;;5115239;28;20427;-68
2021/06/17 00:53:12;;;;;;;11.57;10.33;;;;;;;;;;5114981;28;20434;-69
2021/06/17 00:55:39;;;;;;;11.17;10.07;;;;;;;;;;5115068;28;20808;-68
2021/06/17 00:58:07;;;;;;;10.63;9.63;;;;;;;;;;5114838;28;20446;-68
2021/06/17 01:00:34;;;;;;;10.70;9.80;;;;;;;;;;5114153;28;20456;-69
2021/06/17 01:03:03;;;;;;;12.60;10.20;;;;;;;;;;5114740;28;20438;-68
2021/06/17 01:05:30;;;;;;;12.80;11.13;;;;;;;;;;5114525;28;20444;-68
2021/06/17 01:08:01;;;;;;;11.63;10.53;;;;;;;;;;5115015;28;20562;-68
2021/06/17 01:10:31;;;;;;;19.13;10.37;;;;;;;;;;5115006;28;20429;-68
2021/06/17 01:13:03;;;;;;;11.03;10.10;;;;;;;;;;5114746;28;20427;-68
2021/06/17 01:15:32;;;;;;;11.50;10.60;;;;;;;;;;5114313;28;20427;-69
2021/06/17 01:18:02;;;;;;;11.40;10.23;;;;;;;;;;5122739;27;20462;-68
2021/06/17 01:20:34;;;;;;;10.47;9.57;;;;;;;;;;5116934;27;20481;-68
2021/06/17 01:23:07;;;;;;;11.43;10.37;;;;;;;;;;5134711;27;20902;-68
2021/06/17 01:25:58;;;;;;;16.40;10.90;;;;;;;;;;5127208;27;20426;-68
2021/06/17 01:28:27;;;;;;;11.60;10.27;;;;;;;;;;5099056;28;20493;-68
2021/06/17 01:30:57;;;;;;;11.43;10.40;;;;;;;;;;5114362;28;20442;-67
2021/06/17 01:33:25;;;;;;;10.73;9.83;;;;;;;;;;5115616;27;20431;-69
2021/06/17 01:35:55;;;;;;;11.47;10.20;;;;;;;;;;5135071;27;20444;-68
2021/06/17 01:38:24;;;;;;;11.10;10.10;;;;;;;;;;5134660;27;20446;-69
2021/06/17 01:40:52;;;;;;;12.70;11.50;;;;;;;;;;5134031;27;20456;-68
2021/06/17 01:43:19;;;;;;;11.53;10.53;;;;;;;;;;5134979;27;20456;-68
2021/06/17 01:45:49;;;;;;;11.53;10.53;;;;;;;;;;5134601;27;20433;-69
2021/06/17 01:48:17;;;;;;;11.50;10.60;;;;;;;;;;5114038;28;20473;-68
2021/06/17 01:50:45;;;;;;;12.53;11.43;;;;;;;;;;5113968;28;20965;-68
2021/06/17 01:53:13;;;;;;;11.73;10.83;;;;;;;;;;5113909;28;20441;-68
2021/06/17 01:55:41;;;;;;;11.80;10.60;;;;;;;;;;5113862;28;20441;-69
2021/06/17 01:58:09;;;;;;;11.07;9.80;;;;;;;;;;5113948;28;20463;-68
2021/06/17 02:00:38;;;;;;;11.60;10.60;;;;;;;;;;5113951;28;20528;-68
2021/06/17 02:03:08;;;;;;;11.13;10.23;;;;;;;;;;5113622;28;20444;-69
2021/06/17 02:05:35;;;;;;;13.17;11.87;;;;;;;;;;5113955;28;20461;-69
2021/06/17 02:08:03;;;;;;;17.03;12.40;;;;;;;;;;5113866;28;20585;-69
2021/06/17 02:10:31;;;;;;;11.83;10.73;;;;;;;;;;5113868;28;20792;-68
2021/06/17 02:12:59;;;;;;;12.27;11.27;;;;;;;;;;5114249;28;20989;-68
2021/06/17 02:15:28;;;;;;;11.37;10.50;;;;;;;;;;5118470;28;20812;-68
2021/06/17 02:17:56;;;;;;;12.83;11.50;;;;;;;;;;5118022;28;20452;-68
2021/06/17 02:20:25;;;;;;;12.83;11.50;;;;;;;;;;5117668;28;20934;-68
2021/06/17 02:22:54;;;;;;;13.70;12.40;;;;;;;;;;5117631;28;20964;-68
2021/06/17 02:25:22;;;;;;;13.73;12.33;;;;;;;;;;5117870;28;20875;-68
2021/06/17 02:27:53;;;;;;;14.27;12.03;;;;;;;;;;5117901;28;20489;-69
2021/06/17 02:30:22;;;;;;;15.70;12.40;;;;;;;;;;5118266;28;20439;-68
2021/06/17 02:32:51;;;;;;;12.00;11.00;;;;;;;;;;5117738;28;20442;-68
2021/06/17 02:35:20;;;;;;;13.30;12.10;;;;;;;;;;5118355;28;20440;-68
2021/06/17 02:37:50;;;;;;;16.40;12.67;;;;;;;;;;5117624;28;20444;-69
2021/06/17 02:40:18;;;;;;;17.20;11.40;;;;;;;;;;5117749;28;20437;-69
2021/06/17 02:42:45;;;;;;;13.47;12.27;;;;;;;;;;5118260;28;20512;-68
2021/06/17 02:45:15;;;;;;;13.90;12.70;;;;;;;;;;5117558;28;20475;-68
2021/06/17 02:47:42;;;;;;;13.63;12.53;;;;;;;;;;5126237;27;20479;-69
2021/06/17 02:50:10;;;;;;;13.77;12.47;;;;;;;;;;5137790;27;20524;-68
2021/06/17 02:52:39;;;;;;;14.57;13.23;;;;;;;;;;5137680;27;20535;-68
2021/06/17 02:55:09;;;;;;;14.33;12.83;;;;;;;;;;5137897;27;20444;-68
2021/06/17 02:57:41;;;;;;;14.30;13.20;;;;;;;;;;5137878;27;20534;-68
2021/06/17 03:00:09;;;;;;;15.77;12.80;;;;;;;;;;5138476;27;20430;-69
2021/06/17 03:02:40;;;;;;;13.87;12.47;;;;;;;;;;5138219;27;20445;-68
2021/06/17 03:05:10;;;;;;;14.87;13.57;;;;;;;;;;5138141;27;20431;-69
2021/06/17 03:07:41;;;;;;;14.80;13.20;;;;;;;;;;5137101;27;20466;-69
2021/06/17 03:10:12;;;;;;;14.43;13.07;;;;;;;;;;5138248;27;20429;-68
2021/06/17 03:12:40;;;;;;;13.70;12.50;;;;;;;;;;5137488;27;20445;-67
2021/06/17 03:15:08;;;;;;;13.33;12.23;;;;;;;;;;5137460;27;20441;-67
2021/06/17 03:17:36;;;;;;;14.07;12.77;;;;;;;;;;5137315;27;20452;-68
2021/06/17 03:20:06;;;;;;;15.67;13.60;;;;;;;;;;5137393;27;20462;-68
2021/06/17 03:22:34;;;;;;;14.13;13.03;;;;;;;;;;5137059;27;20801;-68
2021/06/17 03:25:04;;;;;;;14.67;13.47;;;;;;;;;;5137450;27;20440;-69
2021/06/17 03:27:33;;;;;;;15.07;13.67;;;;;;;;;;5137105;27;20554;-69
2021/06/17 03:30:02;;;;;;;15.77;14.20;;;;;;;;;;5137431;27;20446;-68
2021/06/17 03:32:30;;;;;;;15.90;14.60;;;;;;;;;;5136762;27;20461;-68
2021/06/17 03:34:58;;;;;;;14.97;13.47;;;;;;;;;;5137153;27;20435;-68
2021/06/17 03:37:26;;;;;;;17.07;15.37;;;;;;;;;;5136977;27;20447;-68
2021/06/17 03:39:54;;;;;;;18.83;14.63;;;;;;;;;;5136628;27;20453;-68
2021/06/17 03:42:22;;;;;;;16.13;14.43;;;;;;;;;;5136760;27;20434;-68
2021/06/17 03:44:52;;;;;;;15.47;13.90;;;;;;;;;;5137048;27;20440;-68
2021/06/17 03:47:22;;;;;;;15.67;14.27;;;;;;;;;;5128432;27;20488;-68
2021/06/17 03:49:50;;;;;;;14.90;13.60;;;;;;;;;;5115941;28;20420;-68
2021/06/17 03:52:17;;;;;;;15.37;13.77;;;;;;;;;;5116259;28;21017;-68
2021/06/17 03:54:45;;;;;;;15.67;14.27;;;;;;;;;;5115871;28;20451;-68
2021/06/17 03:57:13;;;;;;;17.60;14.43;;;;;;;;;;5116036;28;20522;-68
2021/06/17 03:59:41;;;;;;;15.60;14.30;;;;;;;;;;5116222;28;20543;-68
2021/06/17 04:02:10;;;;;;;18.13;16.37;;;;;;;;;;5115834;28;20472;-69
2021/06/17 04:04:38;;;;;;;16.80;15.27;;;;;;;;;;5115862;28;20489;-68
2021/06/17 04:07:08;;;;;;;15.50;13.47;;;;;;;;;;5115480;28;20444;-68
2021/06/17 04:09:37;;;;;;;16.27;14.63;;;;;;;;;;5115424;28;20573;-69
2021/06/17 04:12:05;;;;;;;16.10;14.53;;;;;;;;;;5115450;28;20463;-68
2021/06/17 04:14:33;;;;;;;15.63;14.23;;;;;;;;;;5115869;28;20979;-68
2021/06/17 04:17:00;;;;;;;16.50;14.30;;;;;;;;;;5115725;28;20558;-68
2021/06/17 04:19:29;;;;;;;16.47;14.50;;;;;;;;;;5115517;28;20532;-69
2021/06/17 04:21:58;;;;;;;15.73;14.20;;;;;;;;;;5115480;28;20435;-68
2021/06/17 04:24:26;;;;;;;14.43;13.03;;;;;;;;;;5115910;28;20856;-68
2021/06/17 04:26:53;;;;;;;15.50;14.00;;;;;;;;;;5115381;28;20469;-68
2021/06/17 04:29:21;;;;;;;15.77;14.37;;;;;;;;;;5115803;28;20824;-68
2021/06/17 04:31:50;;;;;;;16.23;14.50;;;;;;;;;;5115444;28;20431;-68
2021/06/17 04:34:18;;;;;;;16.67;15.00;;;;;;;;;;5115320;28;20441;-69
2021/06/17 04:36:47;;;;;;;15.63;13.87;;;;;;;;;;5123004;27;20573;-68
2021/06/17 04:39:14;;;;;;;17.30;15.53;;;;;;;;;;5115534;28;20486;-68
2021/06/17 04:41:43;;;;;;;16.60;14.30;;;;;;;;;;5130854;27;20929;-69
2021/06/17 04:44:10;;;;;;;16.17;14.20;;;;;;;;;;5135813;27;20811;-68
2021/06/17 04:46:38;;;;;;;20.00;14.13;;;;;;;;;;5135878;27;20852;-68
2021/06/17 04:49:05;;;;;;;15.40;13.90;;;;;;;;;;5135613;27;20484;-68
2021/06/17 04:51:36;;;;;;;15.40;13.80;;;;;;;;;;5135373;27;20437;-69
2021/06/17 04:54:06;;;;;;;15.00;13.60;;;;;;;;;;5135238;27;20418;-69
2021/06/17 04:56:33;;;;;;;14.13;12.80;;;;;;;;;;5135658;27;20457;-69
2021/06/17 04:59:00;;;;;;;14.70;13.30;;;;;;;;;;5135069;27;20449;-68
2021/06/17 05:01:28;;;;;;;14.53;13.17;;;;;;;;;;5135146;27;20441;-68
2021/06/17 05:03:55;;;;;;;14.70;12.37;;;;;;;;;;5135192;27;20453;-68
2021/06/17 05:06:22;;;;;;;14.90;13.17;;;;;;;;;;5122390;27;20530;-67
2021/06/17 05:11:37;;;;;;;13.83;12.37;;;;;;;;;;5135051;27;20405;-67
2021/06/17 05:14:04;;;;;;;13.83;12.37;;;;;;;;;;5135402;27;20888;-67
2021/06/17 05:16:32;;;;;;;11.90;10.90;;;;;;;;;;5134876;27;20438;-67
2021/06/17 05:18:59;;;;;;;14.20;11.83;;;;;;;;;;5135444;27;20446;-67
2021/06/17 05:21:26;;;;;;;12.97;11.67;;;;;;;;;;5127756;27;20446;-67
2021/06/17 05:23:54;;;;;;;12.40;11.23;;;;;;;;;;5123181;27;20449;-67
2021/06/17 05:26:22;;;;;;;13.83;12.07;;;;;;;;;;5121008;27;20515;-67
2021/06/17 05:28:51;;;;;;;12.60;11.50;;;;;;;;;;5115148;27;21037;-67
2021/06/17 05:31:19;;;;;;;13.47;12.27;;;;;;;;;;5114304;28;20825;-67
2021/06/17 05:33:47;;;;;;;12.07;10.90;;;;;;;;;;5114157;28;20813;-67
2021/06/17 05:36:15;;;;;;;11.83;10.83;;;;;;;;;;5114233;28;20444;-67
2021/06/17 05:38:42;;;;;;;11.90;10.90;;;;;;;;;;5114284;28;20815;-74
2021/06/17 05:41:10;;;;;;;12.87;11.67;;;;;;;;;;5114418;28;20449;-66
2021/06/17 05:43:38;;;;;;;11.17;10.17;;;;;;;;;;5114055;28;20862;-67
2021/06/17 05:46:06;;;;;;;11.40;10.40;;;;;;;;;;5115630;28;20471;-67
2021/06/17 05:48:34;;;;;;;12.33;10.60;;;;;;;;;;5114103;28;20557;-66
2021/06/17 05:51:01;;;;;;;12.50;10.80;;;;;;;;;;5108140;28;20435;-66
2021/06/17 05:53:28;;;;;;;12.57;10.37;;;;;;;;;;5093248;28;20446;-67
2021/06/17 05:55:56;;;;;;;10.20;9.27;;;;;;;;;;5093016;28;20446;-66
2021/06/17 05:58:23;;;;;;;11.43;10.03;;;;;;;;;;5102206;28;20426;-66
2021/06/17 06:00:50;;;;;;;10.23;9.17;;;;;;;;;;5107429;28;20527;-67
2021/06/17 06:03:19;;;;;;;9.93;8.93;;;;;;;;;;5111906;28;20495;-67
2021/06/17 06:05:46;;;;;;;14.40;9.70;;;;;;;;;;5113842;28;20466;-68
2021/06/17 06:08:14;;;;;;;9.80;9.00;;;;;;;;;;5113867;28;20533;-68
2021/06/17 06:10:41;;;;;;;9.40;8.50;;;;;;;;;;5113473;28;20454;-67
2021/06/17 06:13:09;;;;;;;13.77;9.00;;;;;;;;;;5106987;28;20453;-67
2021/06/17 06:15:36;;;;;;;13.33;7.93;;;;;;;;;;5095540;28;20521;-67
2021/06/17 06:18:08;;;;;;;12.17;9.03;;;;;;;;;;5113351;28;20449;-67
2021/06/17 06:20:37;;;;;;;11.10;9.17;;;;;;;;;;5105234;28;20520;-67
2021/06/17 06:23:04;;;;;;;16.40;8.60;;;;;;;;;;5093665;28;20437;-67
2021/06/17 06:25:31;;;;;;;14.50;8.07;;;;;;;;;;5093498;28;20482;-66
2021/06/17 06:27:58;;;;;;;11.57;8.13;;;;;;;;;;5105412;28;20566;-66
2021/06/17 06:30:26;;;;;;;10.03;8.30;;;;;;;;;;5132187;28;20481;-68
2021/06/17 06:32:53;;;;;;;10.90;8.20;;;;;;;;;;5127422;28;20440;-67
2021/06/17 06:35:20;;;;;;;18.73;12.30;;;;;;;;;;5116023;28;20432;-67
2021/06/17 06:37:50;;;;;;;10.70;7.70;;;;;;;;;;5134054;28;20431;-67
2021/06/17 06:40:18;;;;;;;15.10;8.40;;;;;;;;;;5127264;28;20444;-67
2021/06/17 06:42:46;;;;;;;17.30;8.63;;;;;;;;;;5113418;28;20803;-67
2021/06/17 06:45:13;;;;;;;9.07;8.17;;;;;;;;;;5113839;28;20450;-67
2021/06/17 06:47:41;;;;;;;16.87;8.20;;;;;;;;;;5113108;28;20434;-67
2021/06/17 06:50:09;;;;;;;13.30;7.53;;;;;;;;;;5130926;28;20538;-67
2021/06/17 06:52:36;;;;;;;12.70;7.57;;;;;;;;;;5133975;28;20432;-67
2021/06/17 06:55:05;;;;;;;14.23;8.00;;;;;;;;;;5133657;28;20444;-67
2021/06/17 06:57:32;;;;;;;20.13;7.80;;;;;;;;;;5134024;28;20456;-67
2021/06/17 06:59:59;;;;;;;9.73;7.80;;;;;;;;;;5136534;27;20554;-67
2021/06/17 07:02:27;;;;;;;11.87;8.77;;;;;;;;;;5138101;27;20519;-67
2021/06/17 07:04:54;;;;;;;7.37;6.53;;;;;;;;;;5137642;27;20450;-67
2021/06/17 07:07:21;;;;;;;14.63;7.80;;;;;;;;;;5137534;27;20524;-67
2021/06/17 07:09:48;;;;;;;11.20;7.40;;;;;;;;;;5137132;27;20539;-67
2021/06/17 07:12:17;;;;;;;12.13;7.60;;;;;;;;;;5137569;27;21072;-68
2021/06/17 07:14:45;;;;;;;11.50;7.70;;;;;;;;;;5137520;27;20477;-67
2021/06/17 07:17:12;;;;;;;7.53;6.93;;;;;;;;;;5137450;27;20533;-67
2021/06/17 07:19:39;;;;;;;8.13;7.30;;;;;;;;;;5138185;27;20472;-66
2021/06/17 07:22:07;;;;;;;8.33;6.70;;;;;;;;;;5137440;27;20805;-67
2021/06/17 07:24:34;;;;;;;9.40;6.23;;;;;;;;;;5137217;27;20488;-67
2021/06/17 07:27:02;;;;;;;11.20;6.93;;;;;;;;;;5136754;27;20980;-67
2021/06/17 07:29:31;;;;;;;12.13;9.30;;;;;;;;;;5137085;27;20503;-67
2021/06/17 07:31:58;;;;;;;11.07;7.90;;;;;;;;;;5136762;27;20460;-67
2021/06/17 07:34:26;;;;;;;9.63;7.10;;;;;;;;;;5137071;27;20438;-67
2021/06/17 07:36:53;;;;;;;7.63;6.70;;;;;;;;;;5137163;27;20496;-67
2021/06/17 07:39:21;;;;;;;8.97;6.60;;;;;;;;;;5137274;27;20453;-67
2021/06/17 07:41:48;;;;;;;6.80;6.20;;;;;;;;;;5136563;27;20442;-67
2021/06/17 07:44:15;;;;;;;10.57;6.20;;;;;;;;;;5137062;27;20441;-68
2021/06/17 07:46:44;;;;;;;9.13;6.17;;;;;;;;;;5136576;27;20956;-67
2021/06/17 07:49:12;;;;;;;11.13;6.93;;;;;;;;;;5137100;27;20779;-67
2021/06/17 07:51:39;;;;;;;12.73;6.93;;;;;;;;;;5137307;27;20503;-67
2021/06/17 07:54:06;;;;;;;7.40;6.07;;;;;;;;;;5136992;27;20838;-67
2021/06/17 07:56:34;;;;;;;7.80;6.93;;;;;;;;;;5136513;27;20525;-67
2021/06/17 07:59:01;;;;;;;9.00;8.10;;;;;;;;;;5136438;27;20968;-67
2021/06/17 08:01:28;;;;;;;13.83;7.40;;;;;;;;;;5135786;27;20507;-68
2021/06/17 08:03:57;;;;;;;8.30;7.50;;;;;;;;;;5136557;27;20485;-67
2021/06/17 08:06:25;;;;;;;9.50;7.67;;;;;;;;;;5137325;27;20452;-67
2021/06/17 08:08:52;;;;;;;9.17;7.40;;;;;;;;;;5137179;27;20519;-67
2021/06/17 08:11:19;;;;;;;9.73;6.70;;;;;;;;;;5136295;27;20512;-66
2021/06/17 08:13:46;;;;;;;7.70;7.03;;;;;;;;;;5136741;27;20427;-67
2021/06/17 08:16:13;;;;;;;12.37;6.90;;;;;;;;;;5138011;27;20470;-67
2021/06/17 08:18:40;;;;;;;7.33;6.40;;;;;;;;;;5138234;27;20455;-67
2021/06/17 08:21:09;;;;;;;7.57;6.77;;;;;;;;;;5137000;27;20468;-67
2021/06/17 08:23:36;;;;;;;9.50;6.57;;;;;;;;;;5136391;27;20508;-67
2021/06/17 08:26:04;;;;;;;16.27;7.03;;;;;;;;;;5136359;27;20901;-67
2021/06/17 08:28:31;;;;;;;10.50;7.20;;;;;;;;;;5136041;27;20543;-67
2021/06/17 08:30:58;;;;;;;8.70;6.87;;;;;;;;;;5136134;27;20448;-67
2021/06/17 08:33:26;;;;;;;7.20;6.60;;;;;;;;;;5117274;27;20470;-67
2021/06/17 08:35:53;;;;;;;7.57;6.83;;;;;;;;;;5114985;28;20525;-67
2021/06/17 08:38:22;;;;;;;7.17;6.60;;;;;;;;;;5115215;28;20478;-67
2021/06/17 08:40:49;;;;;;;8.20;6.83;;;;;;;;;;5115061;28;20422;-67
2021/06/17 08:43:16;;;;;;;7.10;6.40;;;;;;;;;;5115621;28;20765;-67
2021/06/17 08:45:43;;;;;;;7.20;6.50;;;;;;;;;;5115162;28;20513;-67
2021/06/17 08:48:12;;;;;;;7.23;6.40;;;;;;;;;;5115556;28;20444;-67
2021/06/17 08:50:39;;;;;;;11.93;6.67;;;;;;;;;;5115013;28;20483;-67
2021/06/17 08:53:06;;;;;;;8.03;6.23;;;;;;;;;;5115142;28;20504;-67
2021/06/17 08:55:37;;;;;;;8.00;6.20;;;;;;;;;;5114959;28;21002;-67
2021/06/17 08:58:04;;;;;;;7.20;6.00;;;;;;;;;;5123831;27;20448;-67
2021/06/17 09:00:41;;;;;;;9.33;6.23;;;;;;;;;;5117443;27;20445;-67
2021/06/17 09:03:09;;;;;;;6.60;5.97;;;;;;;;;;5135196;27;20528;-67
2021/06/17 09:05:38;;;;;;;6.27;5.77;;;;;;;;;;5128717;27;20514;-67
2021/06/17 09:08:06;;;;;;;8.63;6.50;;;;;;;;;;5114408;28;20970;-66
2021/06/17 09:10:35;;;;;;;7.03;6.27;;;;;;;;;;5115196;28;20473;-66
2021/06/17 09:13:03;;;;;;;7.03;6.33;;;;;;;;;;5115404;28;20503;-67
2021/06/17 09:15:41;;;;;;;9.10;6.20;;;;;;;;;;5126219;27;20886;-67
2021/06/17 09:18:16;;;;;;;7.60;6.90;;;;;;;;;;5121684;27;20514;-67
2021/06/17 09:20:50;;;;;;;15.17;8.63;;;;;;;;;;5135016;27;20455;-67
2021/06/17 09:23:21;;;;;;;7.03;6.40;;;;;;;;;;5135245;27;20861;-67
2021/06/17 09:25:51;;;;;;;7.60;6.20;;;;;;;;;;5134863;27;20518;-67
2021/06/17 09:28:18;;;;;;;6.40;5.90;;;;;;;;;;5134986;27;20472;-67
2021/06/17 09:30:45;;;;;;;12.70;5.77;;;;;;;;;;5135118;27;20448;-67
2021/06/17 09:33:14;;;;;;;6.73;6.23;;;;;;;;;;5134911;27;20540;-68
2021/06/17 09:35:51;;;;;;;13.40;6.27;;;;;;;;;;5134743;27;20424;-67
2021/06/17 09:38:19;;;;;;;8.37;6.33;;;;;;;;;;5135049;27;20436;-67
2021/06/17 09:40:47;;;;;;;7.73;5.67;;;;;;;;;;5134475;27;20475;-67
2021/06/17 09:43:17;;;;;;;7.40;5.23;;;;;;;;;;5134861;27;20440;-67
2021/06/17 09:45:51;;;;;;;13.10;5.40;;;;;;;;;;5134776;27;20447;-67
2021/06/17 09:48:37;;;;;;;8.50;5.90;;;;;;;;;;5134753;27;20425;-68
2021/06/17 09:51:19;;;;;;;6.77;6.27;;;;;;;;;;5133759;27;20473;-68
2021/06/17 09:53:46;;;;;;;9.30;7.07;;;;;;;;;;5110953;28;20539;-66
2021/06/17 09:56:15;;;;;;;9.93;6.70;;;;;;;;;;5113827;28;20439;-67
2021/06/17 09:58:45;;;;;;;7.43;6.50;;;;;;;;;;5113736;28;20537;-67
2021/06/17 10:01:15;;;;;;;5.23;4.83;;;;;;;;;;5113632;28;20959;-67
2021/06/17 10:03:43;;;;;;;8.93;6.20;;;;;;;;;;5124817;28;20455;-67
2021/06/17 10:06:20;;;;;;;6.57;6.07;;;;;;;;;;5117911;28;20984;-66
2021/06/17 10:08:47;;;;;;;5.97;5.57;;;;;;;;;;5134297;28;20441;-67
2021/06/17 10:11:15;;;;;;;7.03;6.43;;;;;;;;;;5122868;28;20473;-68
2021/06/17 10:13:44;;;;;;;6.37;5.97;;;;;;;;;;5124965;28;20451;-67
2021/06/17 10:16:16;;;;;;;6.57;5.97;;;;;;;;;;5119608;28;20466;-67
2021/06/17 10:18:45;;;;;;;6.93;6.23;;;;;;;;;;5134555;28;20448;-67
2021/06/17 10:21:14;;;;;;;8.30;6.47;;;;;;;;;;5122530;28;20447;-67
2021/06/17 10:23:42;;;;;;;6.00;5.50;;;;;;;;;;5113923;28;20453;-67
2021/06/17 10:26:09;;;;;;;8.90;6.43;;;;;;;;;;5113013;28;20480;-67
2021/06/17 10:28:47;;;;;;;6.07;5.57;;;;;;;;;;5113804;28;20476;-67
2021/06/17 10:31:15;;;;;;;5.83;5.43;;;;;;;;;;5113822;28;20471;-68
2021/06/17 10:33:42;;;;;;;6.57;5.90;;;;;;;;;;5134197;27;20963;-67
2021/06/17 10:36:35;;;;;;;5.73;5.07;;;;;;;;;;5138238;27;20439;-67
2021/06/17 10:39:17;;;;;;;7.30;5.93;;;;;;;;;;5138933;27;20482;-67
2021/06/17 10:42:05;;;;;;;7.33;5.33;;;;;;;;;;5138087;27;20935;-67
2021/06/17 10:44:36;;;;;;;5.33;4.83;;;;;;;;;;5095999;27;20453;-67
2021/06/17 10:47:04;;;;;;;5.80;5.27;;;;;;;;;;5137605;27;20821;-67
2021/06/17 10:49:52;;;;;;;5.00;4.60;;;;;;;;;;5137804;27;20476;-67
2021/06/17 10:52:23;;;;;;;4.87;4.47;;;;;;;;;;5126320;27;20524;-67
2021/06/17 10:54:52;;;;;;;5.90;5.47;;;;;;;;;;5117499;28;20436;-67
2021/06/17 10:57:34;;;;;;;5.50;5.00;;;;;;;;;;5117165;28;20488;-67
2021/06/17 11:00:23;;;;;;;5.20;4.70;;;;;;;;;;5116638;28;20532;-67
2021/06/17 11:02:53;;;;;;;6.57;4.80;;;;;;;;;;5123181;27;20445;-67
2021/06/17 11:05:36;;;;;;;7.60;5.30;;;;;;;;;;5122734;27;20435;-67
2021/06/17 11:08:23;;;;;;;6.37;5.63;;;;;;;;;;5116950;28;20442;-68
2021/06/17 11:10:51;;;;;;;6.20;5.73;;;;;;;;;;5117052;28;20454;-67
2021/06/17 11:13:28;;;;;;;5.60;5.10;;;;;;;;;;5133083;27;20453;-67
2021/06/17 11:15:57;;;;;;;5.20;4.53;;;;;;;;;;5137268;27;20527;-67
2021/06/17 11:18:44;;;;;;;6.67;5.10;;;;;;;;;;5137895;27;20501;-67
2021/06/17 11:21:31;;;;;;;6.10;5.60;;;;;;;;;;5137404;27;20460;-67
2021/06/17 11:24:00;;;;;;;5.53;5.03;;;;;;;;;;5137703;27;20447;-68
2021/06/17 11:26:45;;;;;;;6.03;5.10;;;;;;;;;;5137669;27;20438;-67
2021/06/17 11:29:14;;;;;;;6.33;4.53;;;;;;;;;;5138402;27;20422;-67
2021/06/17 11:31:43;;;;;;;5.93;5.07;;;;;;;;;;5137616;27;20482;-67
2021/06/17 11:34:11;;;;;;;9.70;5.10;;;;;;;;;;5137509;27;20441;-67
2021/06/17 11:36:48;;;;;;;4.87;4.47;;;;;;;;;;5138135;27;20433;-67
2021/06/17 11:39:21;;;;;;;6.03;4.63;;;;;;;;;;5137672;27;20538;-67
2021/06/17 11:41:48;;;;;;;5.17;4.77;;;;;;;;;;5137021;27;20517;-67
2021/06/17 11:44:19;;;;;;;5.23;4.73;;;;;;;;;;5115973;28;20454;-68
2021/06/17 11:46:50;;;;;;;6.73;4.60;;;;;;;;;;5116139;28;20469;-67
2021/06/17 11:49:18;;;;;;;5.47;4.87;;;;;;;;;;5116697;28;20467;-67
2021/06/17 11:51:46;;;;;;;5.37;4.87;;;;;;;;;;5116569;28;20474;-67
2021/06/17 11:54:24;;;;;;;9.87;4.63;;;;;;;;;;5116575;28;20451;-67
2021/06/17 11:56:51;;;;;;;6.27;4.13;;;;;;;;;;5116922;28;20435;-67
2021/06/17 11:59:20;;;;;;;4.00;3.70;;;;;;;;;;5115921;28;20446;-67
2021/06/17 12:02:08;;;;;;;4.30;3.63;;;;;;;;;;5117970;27;20444;-67
2021/06/17 12:04:58;;;;;;;5.83;4.50;;;;;;;;;;5136430;27;20544;-67
2021/06/17 12:07:35;;;;;;;8.13;5.90;;;;;;;;;;5130420;27;20454;-67
2021/06/17 12:10:10;;;;;;;5.93;4.80;;;;;;;;;;5136915;27;20439;-67
2021/06/17 12:12:38;;;;;;;5.47;4.97;;;;;;;;;;5122006;27;20951;-67
2021/06/17 12:15:06;;;;;;;5.57;5.10;;;;;;;;;;5115691;28;20445;-67
2021/06/17 12:17:36;;;;;;;5.67;5.17;;;;;;;;;;5123982;27;20568;-67
2021/06/17 12:20:10;;;;;;;5.03;4.63;;;;;;;;;;5136276;27;20433;-67
2021/06/17 12:22:37;;;;;;;5.10;4.60;;;;;;;;;;5134903;27;20445;-67
2021/06/17 12:25:05;;;;;;;6.90;4.37;;;;;;;;;;5115418;28;20495;-67
2021/06/17 12:27:32;;;;;;;9.53;4.70;;;;;;;;;;5115527;28;20476;-67
2021/06/17 12:30:14;;;;;;;5.63;4.63;;;;;;;;;;5115251;28;20958;-67
2021/06/17 12:32:43;;;;;;;5.87;4.43;;;;;;;;;;5120846;27;20510;-67
2021/06/17 12:35:12;;;;;;;5.70;4.37;;;;;;;;;;5119926;27;20502;-67
2021/06/17 12:37:52;;;;;;;4.50;3.83;;;;;;;;;;5134453;27;20437;-67
2021/06/17 12:40:27;;;;;;;4.63;4.23;;;;;;;;;;5130237;27;20517;-67
2021/06/17 12:43:11;;;;;;;5.07;3.97;;;;;;;;;;5127829;27;20544;-67
2021/06/17 12:45:39;;;;;;;9.10;5.10;;;;;;;;;;5136051;27;20415;-68
2021/06/17 12:48:12;;;;;;;4.40;4.03;;;;;;;;;;5135900;27;20463;-69
2021/06/17 12:53:25;;;;;;;6.80;4.53;;;;;;;;;;5135701;27;20409;-69
2021/06/17 12:55:56;;;;;;;4.03;3.57;;;;;;;;;;5135776;27;20528;-69
2021/06/17 12:58:24;;;;;;;7.10;4.13;;;;;;;;;;5121659;27;20446;-68
2021/06/17 13:00:58;;;;;;;9.10;3.67;;;;;;;;;;5114627;28;20485;-69
2021/06/17 13:03:28;;;;;;;4.37;3.97;;;;;;;;;;5126794;27;20455;-68
2021/06/17 13:05:56;;;;;;;3.97;3.67;;;;;;;;;;5124624;27;20477;-68
2021/06/17 13:08:25;;;;;;;4.30;3.90;;;;;;;;;;5133349;27;20457;-69
2021/06/17 13:10:53;;;;;;;4.53;4.10;;;;;;;;;;5134762;27;20558;-69
2021/06/17 13:13:22;;;;;;;4.03;3.70;;;;;;;;;;5135684;27;20436;-68
2021/06/17 13:15:52;;;;;;;3.70;3.40;;;;;;;;;;5135310;27;20446;-68
2021/06/17 13:18:20;;;;;;;5.20;3.53;;;;;;;;;;5134752;27;21015;-69
2021/06/17 13:20:50;;;;;;;4.13;3.87;;;;;;;;;;5134358;27;20451;-68
2021/06/17 13:23:19;;;;;;;6.60;4.13;;;;;;;;;;5134284;27;20465;-68
2021/06/17 13:25:53;;;;;;;4.33;3.93;;;;;;;;;;5134558;27;20445;-69
2021/06/17 13:28:27;;;;;;;5.60;3.90;;;;;;;;;;5134054;27;20982;-69
2021/06/17 13:30:55;;;;;;;4.67;3.10;;;;;;;;;;5134773;27;20490;-68
2021/06/17 13:33:22;;;;;;;4.10;3.77;;;;;;;;;;5116601;27;20541;-68
2021/06/17 13:35:51;;;;;;;6.47;3.70;;;;;;;;;;5113722;28;20532;-68
2021/06/17 13:38:21;;;;;;;4.43;3.30;;;;;;;;;;5113677;28;20449;-69
2021/06/17 13:40:48;;;;;;;4.70;4.10;;;;;;;;;;5123863;27;20918;-68
2021/06/17 13:43:15;;;;;;;5.10;3.50;;;;;;;;;;5133954;27;20449;-69
2021/06/17 13:45:43;;;;;;;5.37;4.10;;;;;;;;;;5134690;27;20438;-68
2021/06/17 13:48:10;;;;;;;3.90;3.53;;;;;;;;;;5135120;27;20442;-68
2021/06/17 13:50:38;;;;;;;5.63;3.70;;;;;;;;;;5135020;27;20438;-68
2021/06/17 13:53:08;;;;;;;4.13;3.70;;;;;;;;;;5134357;27;20948;-67
2021/06/17 13:55:35;;;;;;;4.63;3.63;;;;;;;;;;5134676;27;20434;-67
2021/06/17 13:58:06;;;;;;;5.20;4.07;;;;;;;;;;5134312;27;20532;-67
2021/06/17 14:00:33;;;;;;;4.43;4.07;;;;;;;;;;5135148;27;20449;-67
2021/06/17 14:03:01;;;;;;;4.77;4.30;;;;;;;;;;5134249;27;20532;-68
2021/06/17 14:05:29;;;;;;;7.20;4.10;;;;;;;;;;5121418;28;20534;-68
2021/06/17 14:07:57;;;;;;;3.80;3.50;;;;;;;;;;5130539;27;20518;-68
2021/06/17 14:10:28;;;;;;;5.77;3.73;;;;;;;;;;5133642;28;20486;-67
2021/06/17 14:12:55;;;;;;;4.23;3.67;;;;;;;;;;5134751;28;20568;-68
2021/06/17 14:15:22;;;;;;;4.83;4.27;;;;;;;;;;5134370;28;20469;-68
2021/06/17 14:17:50;;;;;;;6.13;3.30;;;;;;;;;;5134204;28;20931;-68
2021/06/17 14:20:20;;;;;;;4.20;3.80;;;;;;;;;;5134215;28;20516;-69
2021/06/17 14:22:48;;;;;;;4.23;3.87;;;;;;;;;;5134245;28;20458;-68
2021/06/17 14:25:15;;;;;;;11.73;6.70;;;;;;;;;;5134361;28;20511;-69
2021/06/17 14:27:45;;;;;;;6.20;3.93;;;;;;;;;;5128972;28;20564;-68
2021/06/17 14:30:13;;;;;;;6.30;4.23;;;;;;;;;;5123166;28;20438;-68
2021/06/17 14:32:40;;;;;;;4.73;4.07;;;;;;;;;;5115471;28;20557;-68
2021/06/17 14:35:08;;;;;;;11.90;5.33;;;;;;;;;;5134151;28;20480;-68
2021/06/17 14:37:35;;;;;;;6.70;4.70;;;;;;;;;;5134149;28;20849;-68
2021/06/17 14:40:04;;;;;;;4.97;4.30;;;;;;;;;;5134282;28;20430;-68
2021/06/17 14:42:32;;;;;;;7.43;4.20;;;;;;;;;;5134383;28;20484;-68
2021/06/17 14:45:01;;;;;;;5.70;4.60;;;;;;;;;;5134448;28;20445;-69
2021/06/17 14:47:28;;;;;;;4.87;4.00;;;;;;;;;;5134225;28;20473;-68
2021/06/17 14:49:55;;;;;;;4.90;4.33;;;;;;;;;;5134105;28;20453;-69